sensor_id;sensor_type;location;lat;lon;timestamp;temperature;humidity
4501;DHT22;2263;54.654;9.410;2022-08-25T00:02:01;23.80;69.00
4501;DHT22;2263;54.654;9.410;2022-08-25T00:04:30;23.70;69.00
4501;DHT22;2263;54.654;9.410;2022-08-25T00:07:02;23.70;69.10
4501;DHT22;2263;54.654;9.410;2022-08-25T00:09:31;23.70;69.00
4501;DHT22;2263;54.654;9.410;2022-08-25T00:11:59;23.70;69.10
4501;DHT22;2263;54.654;9.410;2022-08-25T00:14:30;23.70;69.10
4501;DHT22;2263;54.654;9.410;2022-08-25T00:16:59;23.60;68.90
4501;DHT22;2263;54.654;9.410;2022-08-25T00:19:31;23.60;69.10
4501;DHT22;2263;54.654;9.410;2022-08-25T00:21:59;23.60;69.00
4501;DHT22;2263;54.654;9.410;2022-08-25T00:24:27;23.60;69.00
4501;DHT22;2263;54.654;9.410;2022-08-25T00:26:56;23.60;68.80
4501;DHT22;2263;54.654;9.410;2022-08-25T00:29:25;23.60;68.80
4501;DHT22;2263;54.654;9.410;2022-08-25T00:31:54;23.60;69.20
4501;DHT22;2263;54.654;9.410;2022-08-25T00:34:28;23.50;69.10
4501;DHT22;2263;54.654;9.410;2022-08-25T00:36:56;23.50;69.10
4501;DHT22;2263;54.654;9.410;2022-08-25T00:39:24;23.50;69.10
4501;DHT22;2263;54.654;9.410;2022-08-25T00:41:54;23.50;69.10
4501;DHT22;2263;54.654;9.410;2022-08-25T00:44:27;23.50;69.20
4501;DHT22;2263;54.654;9.410;2022-08-25T00:46:57;23.50;69.10
4501;DHT22;2263;54.654;9.410;2022-08-25T00:52:31;23.40;69.20
4501;DHT22;2263;54.654;9.410;2022-08-25T00:57:40;23.40;68.80
4501;DHT22;2263;54.654;9.410;2022-08-25T01:00:24;23.40;69.20
4501;DHT22;2263;54.654;9.410;2022-08-25T01:02:53;23.30;69.00
4501;DHT22;2263;54.654;9.410;2022-08-25T01:05:23;23.30;69.10
4501;DHT22;2263;54.654;9.410;2022-08-25T01:07:53;23.30;69.20
4501;DHT22;2263;54.654;9.410;2022-08-25T01:10:25;23.30;69.30
4501;DHT22;2263;54.654;9.410;2022-08-25T01:13:00;23.20;69.00
4501;DHT22;2263;54.654;9.410;2022-08-25T01:15:29;23.20;69.20
4501;DHT22;2263;54.654;9.410;2022-08-25T01:17:57;23.20;69.20
4501;DHT22;2263;54.654;9.410;2022-08-25T01:20:28;23.20;69.10
4501;DHT22;2263;54.654;9.410;2022-08-25T01:22:57;23.20;69.20
4501;DHT22;2263;54.654;9.410;2022-08-25T01:25:47;23.20;69.20
4501;DHT22;2263;54.654;9.410;2022-08-25T01:28:18;23.20;69.10
4501;DHT22;2263;54.654;9.410;2022-08-25T01:30:46;23.10;69.10
4501;DHT22;2263;54.654;9.410;2022-08-25T01:33:13;23.10;69.00
4501;DHT22;2263;54.654;9.410;2022-08-25T01:35:43;23.10;69.20
4501;DHT22;2263;54.654;9.410;2022-08-25T01:38:11;23.10;69.30
4501;DHT22;2263;54.654;9.410;2022-08-25T01:40:40;23.10;69.20
4501;DHT22;2263;54.654;9.410;2022-08-25T01:45:46;23.00;69.10
4501;DHT22;2263;54.654;9.410;2022-08-25T01:48:14;23.00;68.90
4501;DHT22;2263;54.654;9.410;2022-08-25T01:50:42;23.00;69.00
4501;DHT22;2263;54.654;9.410;2022-08-25T01:53:23;23.00;69.00
4501;DHT22;2263;54.654;9.410;2022-08-25T01:55:52;23.00;68.90
4501;DHT22;2263;54.654;9.410;2022-08-25T01:58:32;22.90;68.80
4501;DHT22;2263;54.654;9.410;2022-08-25T02:01:04;22.90;69.00
4501;DHT22;2263;54.654;9.410;2022-08-25T02:03:35;22.90;68.90
4501;DHT22;2263;54.654;9.410;2022-08-25T02:06:09;22.90;69.00
4501;DHT22;2263;54.654;9.410;2022-08-25T02:08:37;22.80;69.00
4501;DHT22;2263;54.654;9.410;2022-08-25T02:11:04;22.90;69.10
4501;DHT22;2263;54.654;9.410;2022-08-25T02:13:31;22.80;69.00
4501;DHT22;2263;54.654;9.410;2022-08-25T02:16:00;22.80;69.10
4501;DHT22;2263;54.654;9.410;2022-08-25T02:18:28;22.80;69.20
4501;DHT22;2263;54.654;9.410;2022-08-25T02:20:55;22.70;68.90
4501;DHT22;2263;54.654;9.410;2022-08-25T02:23:23;22.70;69.10
4501;DHT22;2263;54.654;9.410;2022-08-25T02:25:50;22.70;69.10
4501;DHT22;2263;54.654;9.410;2022-08-25T02:28:17;22.70;69.00
4501;DHT22;2263;54.654;9.410;2022-08-25T02:30:44;22.70;69.10
4501;DHT22;2263;54.654;9.410;2022-08-25T02:33:12;22.70;69.20
4501;DHT22;2263;54.654;9.410;2022-08-25T02:35:39;22.70;69.20
4501;DHT22;2263;54.654;9.410;2022-08-25T02:38:06;22.70;69.40
4501;DHT22;2263;54.654;9.410;2022-08-25T02:40:34;22.70;69.30
4501;DHT22;2263;54.654;9.410;2022-08-25T02:43:02;22.60;69.20
4501;DHT22;2263;54.654;9.410;2022-08-25T02:45:29;22.60;69.50
4501;DHT22;2263;54.654;9.410;2022-08-25T02:47:56;22.60;69.30
4501;DHT22;2263;54.654;9.410;2022-08-25T02:50:23;22.60;69.50
4501;DHT22;2263;54.654;9.410;2022-08-25T02:52:52;22.60;69.50
4501;DHT22;2263;54.654;9.410;2022-08-25T02:55:19;22.60;69.40
4501;DHT22;2263;54.654;9.410;2022-08-25T02:57:47;22.60;69.40
4501;DHT22;2263;54.654;9.410;2022-08-25T03:00:15;22.50;69.20
4501;DHT22;2263;54.654;9.410;2022-08-25T03:02:43;22.50;69.10
4501;DHT22;2263;54.654;9.410;2022-08-25T03:05:11;22.50;69.20
4501;DHT22;2263;54.654;9.410;2022-08-25T03:07:40;22.50;69.40
4501;DHT22;2263;54.654;9.410;2022-08-25T03:10:11;22.40;69.30
4501;DHT22;2263;54.654;9.410;2022-08-25T03:12:39;22.40;69.20
4501;DHT22;2263;54.654;9.410;2022-08-25T03:15:08;22.40;69.20
4501;DHT22;2263;54.654;9.410;2022-08-25T03:17:39;22.40;69.20
4501;DHT22;2263;54.654;9.410;2022-08-25T03:20:12;22.40;69.10
4501;DHT22;2263;54.654;9.410;2022-08-25T03:22:39;22.40;69.20
4501;DHT22;2263;54.654;9.410;2022-08-25T03:25:07;22.40;69.10
4501;DHT22;2263;54.654;9.410;2022-08-25T03:27:52;22.40;69.50
4501;DHT22;2263;54.654;9.410;2022-08-25T03:30:20;22.30;69.40
4501;DHT22;2263;54.654;9.410;2022-08-25T03:32:50;22.30;69.30
4501;DHT22;2263;54.654;9.410;2022-08-25T03:35:17;22.30;69.30
4501;DHT22;2263;54.654;9.410;2022-08-25T03:37:45;22.20;69.10
4501;DHT22;2263;54.654;9.410;2022-08-25T03:40:13;22.20;69.30
4501;DHT22;2263;54.654;9.410;2022-08-25T03:42:45;22.20;69.30
4501;DHT22;2263;54.654;9.410;2022-08-25T03:45:15;22.20;69.50
4501;DHT22;2263;54.654;9.410;2022-08-25T03:47:47;22.20;69.40
4501;DHT22;2263;54.654;9.410;2022-08-25T03:50:16;22.20;69.50
4501;DHT22;2263;54.654;9.410;2022-08-25T03:52:48;22.20;69.50
4501;DHT22;2263;54.654;9.410;2022-08-25T03:55:16;22.10;69.50
4501;DHT22;2263;54.654;9.410;2022-08-25T03:57:43;22.10;69.50
4501;DHT22;2263;54.654;9.410;2022-08-25T04:00:11;22.10;69.50
4501;DHT22;2263;54.654;9.410;2022-08-25T04:02:39;22.10;69.50
4501;DHT22;2263;54.654;9.410;2022-08-25T04:05:08;22.10;69.70
4501;DHT22;2263;54.654;9.410;2022-08-25T04:07:35;22.10;69.70
4501;DHT22;2263;54.654;9.410;2022-08-25T04:10:05;22.10;69.70
4501;DHT22;2263;54.654;9.410;2022-08-25T04:12:33;22.10;69.90
4501;DHT22;2263;54.654;9.410;2022-08-25T04:15:00;22.00;69.80
4501;DHT22;2263;54.654;9.410;2022-08-25T04:17:28;22.00;69.80
4501;DHT22;2263;54.654;9.410;2022-08-25T04:19:55;22.00;69.90
4501;DHT22;2263;54.654;9.410;2022-08-25T04:22:23;22.00;69.80
4501;DHT22;2263;54.654;9.410;2022-08-25T04:24:53;22.00;69.90
4501;DHT22;2263;54.654;9.410;2022-08-25T04:27:20;22.00;69.80
4501;DHT22;2263;54.654;9.410;2022-08-25T04:29:47;22.00;69.90
4501;DHT22;2263;54.654;9.410;2022-08-25T04:32:14;22.00;69.90
4501;DHT22;2263;54.654;9.410;2022-08-25T04:34:42;22.00;70.20
4501;DHT22;2263;54.654;9.410;2022-08-25T04:37:09;21.90;69.90
4501;DHT22;2263;54.654;9.410;2022-08-25T04:39:36;21.90;69.90
4501;DHT22;2263;54.654;9.410;2022-08-25T04:42:04;21.90;70.10
4501;DHT22;2263;54.654;9.410;2022-08-25T04:44:31;21.90;70.20
4501;DHT22;2263;54.654;9.410;2022-08-25T04:46:59;21.90;70.30
4501;DHT22;2263;54.654;9.410;2022-08-25T04:49:27;21.90;70.40
4501;DHT22;2263;54.654;9.410;2022-08-25T04:51:54;21.90;70.40
4501;DHT22;2263;54.654;9.410;2022-08-25T04:54:23;21.90;70.50
4501;DHT22;2263;54.654;9.410;2022-08-25T04:56:51;21.80;70.40
4501;DHT22;2263;54.654;9.410;2022-08-25T04:59:24;21.80;70.50
4501;DHT22;2263;54.654;9.410;2022-08-25T05:01:57;21.80;70.70
4501;DHT22;2263;54.654;9.410;2022-08-25T05:04:25;21.80;70.60
4501;DHT22;2263;54.654;9.410;2022-08-25T05:06:55;21.80;70.50
4501;DHT22;2263;54.654;9.410;2022-08-25T05:09:23;21.80;70.70
4501;DHT22;2263;54.654;9.410;2022-08-25T05:11:51;21.80;71.00
4501;DHT22;2263;54.654;9.410;2022-08-25T05:14:19;21.80;71.10
4501;DHT22;2263;54.654;9.410;2022-08-25T05:16:53;21.80;71.30
4501;DHT22;2263;54.654;9.410;2022-08-25T05:19:21;21.80;71.10
4501;DHT22;2263;54.654;9.410;2022-08-25T05:21:50;21.80;71.30
4501;DHT22;2263;54.654;9.410;2022-08-25T05:24:17;21.70;71.20
4501;DHT22;2263;54.654;9.410;2022-08-25T05:26:45;21.70;71.20
4501;DHT22;2263;54.654;9.410;2022-08-25T05:29:12;21.70;71.40
4501;DHT22;2263;54.654;9.410;2022-08-25T05:31:40;21.70;71.60
4501;DHT22;2263;54.654;9.410;2022-08-25T05:34:15;21.70;71.70
4501;DHT22;2263;54.654;9.410;2022-08-25T05:36:45;21.70;71.70
4501;DHT22;2263;54.654;9.410;2022-08-25T05:39:13;21.70;71.90
4501;DHT22;2263;54.654;9.410;2022-08-25T05:41:41;21.70;71.90
4501;DHT22;2263;54.654;9.410;2022-08-25T05:44:08;21.70;71.90
4501;DHT22;2263;54.654;9.410;2022-08-25T05:46:35;21.70;72.00
4501;DHT22;2263;54.654;9.410;2022-08-25T05:49:03;21.70;71.90
4501;DHT22;2263;54.654;9.410;2022-08-25T05:51:30;21.70;72.30
4501;DHT22;2263;54.654;9.410;2022-08-25T05:53:58;21.70;72.30
4501;DHT22;2263;54.654;9.410;2022-08-25T05:56:26;21.70;72.60
4501;DHT22;2263;54.654;9.410;2022-08-25T05:58:53;21.70;72.60
4501;DHT22;2263;54.654;9.410;2022-08-25T06:01:26;21.70;72.80
4501;DHT22;2263;54.654;9.410;2022-08-25T06:04:14;21.70;72.90
4501;DHT22;2263;54.654;9.410;2022-08-25T06:06:41;21.70;72.80
4501;DHT22;2263;54.654;9.410;2022-08-25T06:09:09;21.70;72.80
4501;DHT22;2263;54.654;9.410;2022-08-25T06:11:37;21.70;73.60
4501;DHT22;2263;54.654;9.410;2022-08-25T06:14:07;21.70;73.10
4501;DHT22;2263;54.654;9.410;2022-08-25T06:16:34;21.70;73.00
4501;DHT22;2263;54.654;9.410;2022-08-25T06:19:02;21.70;73.10
4501;DHT22;2263;54.654;9.410;2022-08-25T06:21:30;21.70;72.90
4501;DHT22;2263;54.654;9.410;2022-08-25T06:23:57;21.70;73.10
4501;DHT22;2263;54.654;9.410;2022-08-25T06:26:24;21.70;73.40
4501;DHT22;2263;54.654;9.410;2022-08-25T06:28:52;21.70;73.40
4501;DHT22;2263;54.654;9.410;2022-08-25T06:31:20;21.80;73.60
4501;DHT22;2263;54.654;9.410;2022-08-25T06:33:49;21.70;73.80
4501;DHT22;2263;54.654;9.410;2022-08-25T06:36:19;21.70;73.70
4501;DHT22;2263;54.654;9.410;2022-08-25T06:38:46;21.70;73.70
4501;DHT22;2263;54.654;9.410;2022-08-25T06:41:14;21.70;73.80
4501;DHT22;2263;54.654;9.410;2022-08-25T06:43:42;21.70;74.10
4501;DHT22;2263;54.654;9.410;2022-08-25T06:46:26;21.70;74.20
4501;DHT22;2263;54.654;9.410;2022-08-25T06:49:04;21.70;74.10
4501;DHT22;2263;54.654;9.410;2022-08-25T06:51:32;21.70;73.70
4501;DHT22;2263;54.654;9.410;2022-08-25T06:54:01;21.70;73.60
4501;DHT22;2263;54.654;9.410;2022-08-25T06:56:29;21.70;73.80
4501;DHT22;2263;54.654;9.410;2022-08-25T06:58:56;21.80;74.10
4501;DHT22;2263;54.654;9.410;2022-08-25T07:01:25;21.80;74.50
4501;DHT22;2263;54.654;9.410;2022-08-25T07:03:54;21.80;74.20
4501;DHT22;2263;54.654;9.410;2022-08-25T07:06:27;21.80;74.40
4501;DHT22;2263;54.654;9.410;2022-08-25T07:08:55;21.80;75.20
4501;DHT22;2263;54.654;9.410;2022-08-25T07:11:22;21.80;74.80
4501;DHT22;2263;54.654;9.410;2022-08-25T07:13:49;21.80;75.10
4501;DHT22;2263;54.654;9.410;2022-08-25T07:16:18;21.90;75.20
4501;DHT22;2263;54.654;9.410;2022-08-25T07:18:50;21.90;75.20
4501;DHT22;2263;54.654;9.410;2022-08-25T07:21:21;21.90;75.40
4501;DHT22;2263;54.654;9.410;2022-08-25T07:23:54;21.90;75.60
4501;DHT22;2263;54.654;9.410;2022-08-25T07:26:27;21.90;75.70
4501;DHT22;2263;54.654;9.410;2022-08-25T07:29:17;22.00;75.80
4501;DHT22;2263;54.654;9.410;2022-08-25T07:31:45;22.00;75.70
4501;DHT22;2263;54.654;9.410;2022-08-25T07:34:16;22.00;75.60
4501;DHT22;2263;54.654;9.410;2022-08-25T07:37:04;22.00;75.50
4501;DHT22;2263;54.654;9.410;2022-08-25T07:39:33;22.10;75.50
4501;DHT22;2263;54.654;9.410;2022-08-25T07:42:00;22.10;75.30
4501;DHT22;2263;54.654;9.410;2022-08-25T07:44:27;22.10;75.30
4501;DHT22;2263;54.654;9.410;2022-08-25T07:46:55;22.10;75.40
4501;DHT22;2263;54.654;9.410;2022-08-25T07:49:24;22.20;75.50
4501;DHT22;2263;54.654;9.410;2022-08-25T07:51:52;22.20;75.40
4501;DHT22;2263;54.654;9.410;2022-08-25T07:54:33;22.20;75.40
4501;DHT22;2263;54.654;9.410;2022-08-25T07:57:07;22.20;75.30
4501;DHT22;2263;54.654;9.410;2022-08-25T07:59:39;22.20;75.50
4501;DHT22;2263;54.654;9.410;2022-08-25T08:02:09;22.30;75.30
4501;DHT22;2263;54.654;9.410;2022-08-25T08:04:49;22.30;75.30
4501;DHT22;2263;54.654;9.410;2022-08-25T08:07:19;22.30;75.00
4501;DHT22;2263;54.654;9.410;2022-08-25T08:09:49;22.40;75.20
4501;DHT22;2263;54.654;9.410;2022-08-25T08:12:37;22.40;75.10
4501;DHT22;2263;54.654;9.410;2022-08-25T08:15:05;22.40;75.10
4501;DHT22;2263;54.654;9.410;2022-08-25T08:17:37;22.40;74.80
4501;DHT22;2263;54.654;9.410;2022-08-25T08:20:07;22.40;74.80
4501;DHT22;2263;54.654;9.410;2022-08-25T08:22:36;22.40;74.70
4501;DHT22;2263;54.654;9.410;2022-08-25T08:25:05;22.40;74.70
4501;DHT22;2263;54.654;9.410;2022-08-25T08:27:36;22.40;74.60
4501;DHT22;2263;54.654;9.410;2022-08-25T08:30:05;22.50;74.70
4501;DHT22;2263;54.654;9.410;2022-08-25T08:32:33;22.50;74.80
4501;DHT22;2263;54.654;9.410;2022-08-25T08:35:20;22.50;74.50
4501;DHT22;2263;54.654;9.410;2022-08-25T08:37:47;22.50;74.60
4501;DHT22;2263;54.654;9.410;2022-08-25T08:40:20;22.50;74.50
4501;DHT22;2263;54.654;9.410;2022-08-25T08:43:05;22.50;74.60
4501;DHT22;2263;54.654;9.410;2022-08-25T08:45:52;22.60;74.50
4501;DHT22;2263;54.654;9.410;2022-08-25T08:51:24;22.70;74.40
4501;DHT22;2263;54.654;9.410;2022-08-25T08:56:44;22.80;74.50
4501;DHT22;2263;54.654;9.410;2022-08-25T08:59:21;22.80;74.20
4501;DHT22;2263;54.654;9.410;2022-08-25T09:01:58;22.90;74.20
4501;DHT22;2263;54.654;9.410;2022-08-25T09:04:47;22.90;74.00
4501;DHT22;2263;54.654;9.410;2022-08-25T09:07:25;22.90;73.90
4501;DHT22;2263;54.654;9.410;2022-08-25T09:09:58;22.90;73.90
4501;DHT22;2263;54.654;9.410;2022-08-25T09:12:45;22.90;73.90
4501;DHT22;2263;54.654;9.410;2022-08-25T09:15:32;22.90;73.90
4501;DHT22;2263;54.654;9.410;2022-08-25T09:21:32;22.80;73.80
4501;DHT22;2263;54.654;9.410;2022-08-25T09:30:14;22.90;73.80
4501;DHT22;2263;54.654;9.410;2022-08-25T09:32:52;23.00;73.80
4501;DHT22;2263;54.654;9.410;2022-08-25T09:35:30;22.90;73.80
4501;DHT22;2263;54.654;9.410;2022-08-25T09:38:09;23.00;73.80
4501;DHT22;2263;54.654;9.410;2022-08-25T09:40:42;23.10;73.80
4501;DHT22;2263;54.654;9.410;2022-08-25T09:43:31;23.10;73.50
4501;DHT22;2263;54.654;9.410;2022-08-25T09:46:11;23.00;73.40
4501;DHT22;2263;54.654;9.410;2022-08-25T09:51:18;23.10;73.40
4501;DHT22;2263;54.654;9.410;2022-08-25T09:56:22;23.10;73.20
4501;DHT22;2263;54.654;9.410;2022-08-25T09:58:52;23.20;73.20
4501;DHT22;2263;54.654;9.410;2022-08-25T10:01:23;23.20;73.10
4501;DHT22;2263;54.654;9.410;2022-08-25T10:04:02;23.20;73.00
4501;DHT22;2263;54.654;9.410;2022-08-25T10:06:44;23.30;73.10
4501;DHT22;2263;54.654;9.410;2022-08-25T10:09:26;23.30;73.00
4501;DHT22;2263;54.654;9.410;2022-08-25T10:11:58;23.30;72.90
4501;DHT22;2263;54.654;9.410;2022-08-25T10:17:32;23.40;72.80
4501;DHT22;2263;54.654;9.410;2022-08-25T10:22:37;23.40;72.70
4501;DHT22;2263;54.654;9.410;2022-08-25T10:25:07;23.40;72.70
4501;DHT22;2263;54.654;9.410;2022-08-25T10:31:09;23.40;72.70
4501;DHT22;2263;54.654;9.410;2022-08-25T10:39:51;23.60;72.30
4501;DHT22;2263;54.654;9.410;2022-08-25T10:42:34;23.60;72.20
4501;DHT22;2263;54.654;9.410;2022-08-25T10:45:25;23.70;72.20
4501;DHT22;2263;54.654;9.410;2022-08-25T10:50:59;23.80;72.10
4501;DHT22;2263;54.654;9.410;2022-08-25T10:53:57;23.90;72.00
4501;DHT22;2263;54.654;9.410;2022-08-25T10:56:30;24.00;71.90
4501;DHT22;2263;54.654;9.410;2022-08-25T10:59:18;24.00;71.90
4501;DHT22;2263;54.654;9.410;2022-08-25T11:04:42;24.10;71.80
4501;DHT22;2263;54.654;9.410;2022-08-25T11:09:48;24.20;71.50
4501;DHT22;2263;54.654;9.410;2022-08-25T11:12:30;24.20;71.40
4501;DHT22;2263;54.654;9.410;2022-08-25T11:15:19;24.30;71.00
4501;DHT22;2263;54.654;9.410;2022-08-25T11:21:13;24.30;71.10
4501;DHT22;2263;54.654;9.410;2022-08-25T11:23:37;24.40;70.90
4501;DHT22;2263;54.654;9.410;2022-08-25T11:26:12;24.40;71.40
4501;DHT22;2263;54.654;9.410;2022-08-25T11:31:25;24.50;71.00
4501;DHT22;2263;54.654;9.410;2022-08-25T11:33:54;24.60;71.20
4501;DHT22;2263;54.654;9.410;2022-08-25T11:36:34;24.60;71.40
4501;DHT22;2263;54.654;9.410;2022-08-25T11:42:00;24.70;71.40
4501;DHT22;2263;54.654;9.410;2022-08-25T11:50:32;24.80;70.90
4501;DHT22;2263;54.654;9.410;2022-08-25T12:18:10;25.30;70.70
4501;DHT22;2263;54.654;9.410;2022-08-25T12:23:31;25.30;70.40
4501;DHT22;2263;54.654;9.410;2022-08-25T12:37:12;25.50;70.00
4501;DHT22;2263;54.654;9.410;2022-08-25T12:40:00;25.50;69.90
4501;DHT22;2263;54.654;9.410;2022-08-25T12:42:37;25.50;69.60
4501;DHT22;2263;54.654;9.410;2022-08-25T12:45:12;25.60;69.60
4501;DHT22;2263;54.654;9.410;2022-08-25T12:47:42;25.60;69.50
4501;DHT22;2263;54.654;9.410;2022-08-25T12:53:16;25.70;69.50
4501;DHT22;2263;54.654;9.410;2022-08-25T12:55:59;25.70;69.50
4501;DHT22;2263;54.654;9.410;2022-08-25T12:58:46;25.70;69.20
4501;DHT22;2263;54.654;9.410;2022-08-25T13:07:08;25.80;68.40
4501;DHT22;2263;54.654;9.410;2022-08-25T13:12:46;25.80;68.40
4501;DHT22;2263;54.654;9.410;2022-08-25T13:18:24;25.90;68.60
4501;DHT22;2263;54.654;9.410;2022-08-25T13:23:30;25.90;68.50
4501;DHT22;2263;54.654;9.410;2022-08-25T13:26:00;25.90;69.00
4501;DHT22;2263;54.654;9.410;2022-08-25T13:28:35;25.90;68.10
4501;DHT22;2263;54.654;9.410;2022-08-25T13:31:18;26.00;68.00
4501;DHT22;2263;54.654;9.410;2022-08-25T13:33:57;25.90;68.10
4501;DHT22;2263;54.654;9.410;2022-08-25T13:36:27;26.00;67.90
4501;DHT22;2263;54.654;9.410;2022-08-25T13:39:24;26.00;68.00
4501;DHT22;2263;54.654;9.410;2022-08-25T13:42:16;26.00;67.90
4501;DHT22;2263;54.654;9.410;2022-08-25T13:44:43;26.00;67.60
4501;DHT22;2263;54.654;9.410;2022-08-25T13:47:33;26.00;67.80
4501;DHT22;2263;54.654;9.410;2022-08-25T13:53:02;26.00;67.40
4501;DHT22;2263;54.654;9.410;2022-08-25T13:55:38;26.00;67.70
4501;DHT22;2263;54.654;9.410;2022-08-25T13:58:25;26.00;67.20
4501;DHT22;2263;54.654;9.410;2022-08-25T14:01:30;26.00;67.70
4501;DHT22;2263;54.654;9.410;2022-08-25T14:09:52;26.00;67.70
4501;DHT22;2263;54.654;9.410;2022-08-25T14:17:42;26.00;67.60
4501;DHT22;2263;54.654;9.410;2022-08-25T14:20:22;26.10;67.50
4501;DHT22;2263;54.654;9.410;2022-08-25T14:22:59;26.10;67.30
4501;DHT22;2263;54.654;9.410;2022-08-25T14:25:28;26.00;67.40
4501;DHT22;2263;54.654;9.410;2022-08-25T14:28:03;26.00;67.60
4501;DHT22;2263;54.654;9.410;2022-08-25T14:30:35;26.00;67.70
4501;DHT22;2263;54.654;9.410;2022-08-25T14:33:08;26.00;67.70
4501;DHT22;2263;54.654;9.410;2022-08-25T14:35:36;26.00;67.80
4501;DHT22;2263;54.654;9.410;2022-08-25T14:38:09;26.10;67.50
4501;DHT22;2263;54.654;9.410;2022-08-25T14:40:37;26.10;67.40
4501;DHT22;2263;54.654;9.410;2022-08-25T14:43:08;26.20;68.10
4501;DHT22;2263;54.654;9.410;2022-08-25T14:45:38;26.20;67.20
4501;DHT22;2263;54.654;9.410;2022-08-25T14:48:08;26.20;67.30
4501;DHT22;2263;54.654;9.410;2022-08-25T14:50:39;26.30;67.40
4501;DHT22;2263;54.654;9.410;2022-08-25T14:53:09;26.30;67.50
4501;DHT22;2263;54.654;9.410;2022-08-25T14:55:37;26.30;67.60
4501;DHT22;2263;54.654;9.410;2022-08-25T14:58:06;26.40;67.60
4501;DHT22;2263;54.654;9.410;2022-08-25T15:00:42;26.30;67.60
4501;DHT22;2263;54.654;9.410;2022-08-25T15:03:16;26.40;67.70
4501;DHT22;2263;54.654;9.410;2022-08-25T15:05:47;26.40;67.70
4501;DHT22;2263;54.654;9.410;2022-08-25T15:08:15;26.40;67.70
4501;DHT22;2263;54.654;9.410;2022-08-25T15:11:01;26.40;67.70
4501;DHT22;2263;54.654;9.410;2022-08-25T15:13:34;26.40;67.70
4501;DHT22;2263;54.654;9.410;2022-08-25T15:16:02;26.40;67.70
4501;DHT22;2263;54.654;9.410;2022-08-25T15:18:30;26.50;67.80
4501;DHT22;2263;54.654;9.410;2022-08-25T15:20:58;26.50;67.70
4501;DHT22;2263;54.654;9.410;2022-08-25T15:23:27;26.50;68.00
4501;DHT22;2263;54.654;9.410;2022-08-25T15:25:55;26.50;67.80
4501;DHT22;2263;54.654;9.410;2022-08-25T15:28:23;26.50;67.60
4501;DHT22;2263;54.654;9.410;2022-08-25T15:30:52;26.50;67.80
4501;DHT22;2263;54.654;9.410;2022-08-25T15:33:19;26.50;67.70
4501;DHT22;2263;54.654;9.410;2022-08-25T15:35:48;26.40;67.80
4501;DHT22;2263;54.654;9.410;2022-08-25T15:38:17;26.40;67.80
4501;DHT22;2263;54.654;9.410;2022-08-25T15:40:45;26.50;67.90
4501;DHT22;2263;54.654;9.410;2022-08-25T15:43:12;26.50;68.00
4501;DHT22;2263;54.654;9.410;2022-08-25T15:45:39;26.50;68.00
4501;DHT22;2263;54.654;9.410;2022-08-25T15:48:06;26.50;68.10
4501;DHT22;2263;54.654;9.410;2022-08-25T15:50:35;26.50;68.00
4501;DHT22;2263;54.654;9.410;2022-08-25T15:53:04;26.50;68.10
4501;DHT22;2263;54.654;9.410;2022-08-25T15:55:39;26.50;68.10
4501;DHT22;2263;54.654;9.410;2022-08-25T15:58:07;26.50;68.10
4501;DHT22;2263;54.654;9.410;2022-08-25T16:00:35;26.50;68.20
4501;DHT22;2263;54.654;9.410;2022-08-25T16:03:03;26.50;68.30
4501;DHT22;2263;54.654;9.410;2022-08-25T16:05:37;26.50;68.30
4501;DHT22;2263;54.654;9.410;2022-08-25T16:08:13;26.50;68.20
4501;DHT22;2263;54.654;9.410;2022-08-25T16:10:45;26.20;68.60
4501;DHT22;2263;54.654;9.410;2022-08-25T16:13:13;26.20;68.90
4501;DHT22;2263;54.654;9.410;2022-08-25T16:15:45;26.10;68.70
4501;DHT22;2263;54.654;9.410;2022-08-25T16:18:19;26.20;68.70
4501;DHT22;2263;54.654;9.410;2022-08-25T16:20:47;26.10;68.70
4501;DHT22;2263;54.654;9.410;2022-08-25T16:23:16;26.10;68.70
4501;DHT22;2263;54.654;9.410;2022-08-25T16:25:45;26.10;68.50
4501;DHT22;2263;54.654;9.410;2022-08-25T16:28:14;26.10;68.70
4501;DHT22;2263;54.654;9.410;2022-08-25T16:30:48;26.10;68.70
4501;DHT22;2263;54.654;9.410;2022-08-25T16:33:19;26.00;68.70
4501;DHT22;2263;54.654;9.410;2022-08-25T16:35:47;26.00;68.80
4501;DHT22;2263;54.654;9.410;2022-08-25T16:38:15;26.00;68.80
4501;DHT22;2263;54.654;9.410;2022-08-25T16:40:44;26.00;68.80
4501;DHT22;2263;54.654;9.410;2022-08-25T16:43:12;25.90;68.80
4501;DHT22;2263;54.654;9.410;2022-08-25T16:45:42;25.90;68.80
4501;DHT22;2263;54.654;9.410;2022-08-25T16:48:09;25.90;68.90
4501;DHT22;2263;54.654;9.410;2022-08-25T16:50:38;25.90;68.80
4501;DHT22;2263;54.654;9.410;2022-08-25T16:53:05;25.90;68.80
4501;DHT22;2263;54.654;9.410;2022-08-25T16:56:00;25.90;68.90
4501;DHT22;2263;54.654;9.410;2022-08-25T16:58:27;25.80;69.00
4501;DHT22;2263;54.654;9.410;2022-08-25T17:01:07;25.80;69.10
4501;DHT22;2263;54.654;9.410;2022-08-25T17:03:41;25.80;69.10
4501;DHT22;2263;54.654;9.410;2022-08-25T17:06:10;25.80;69.10
4501;DHT22;2263;54.654;9.410;2022-08-25T17:08:40;25.80;69.10
4501;DHT22;2263;54.654;9.410;2022-08-25T17:11:10;25.80;69.20
4501;DHT22;2263;54.654;9.410;2022-08-25T17:13:43;25.80;69.20
4501;DHT22;2263;54.654;9.410;2022-08-25T17:16:13;25.80;69.20
4501;DHT22;2263;54.654;9.410;2022-08-25T17:18:41;25.70;69.10
4501;DHT22;2263;54.654;9.410;2022-08-25T17:21:15;25.70;69.10
4501;DHT22;2263;54.654;9.410;2022-08-25T17:23:50;25.70;69.20
4501;DHT22;2263;54.654;9.410;2022-08-25T17:26:20;25.30;69.70
4501;DHT22;2263;54.654;9.410;2022-08-25T17:28:58;25.20;70.50
4501;DHT22;2263;54.654;9.410;2022-08-25T17:31:27;25.00;70.80
4501;DHT22;2263;54.654;9.410;2022-08-25T17:33:56;24.90;71.10
4501;DHT22;2263;54.654;9.410;2022-08-25T17:36:23;24.80;71.30
4501;DHT22;2263;54.654;9.410;2022-08-25T17:38:54;24.80;71.40
4501;DHT22;2263;54.654;9.410;2022-08-25T17:41:23;24.80;71.60
4501;DHT22;2263;54.654;9.410;2022-08-25T17:43:51;25.20;71.30
4501;DHT22;2263;54.654;9.410;2022-08-25T17:46:19;25.30;70.70
4501;DHT22;2263;54.654;9.410;2022-08-25T17:48:46;25.50;70.40
4501;DHT22;2263;54.654;9.410;2022-08-25T17:51:14;25.50;70.20
4501;DHT22;2263;54.654;9.410;2022-08-25T17:53:42;25.60;70.00
4501;DHT22;2263;54.654;9.410;2022-08-25T17:56:12;25.70;70.00
4501;DHT22;2263;54.654;9.410;2022-08-25T17:58:40;25.70;70.00
4501;DHT22;2263;54.654;9.410;2022-08-25T18:01:19;25.70;69.90
4501;DHT22;2263;54.654;9.410;2022-08-25T18:03:48;25.70;69.90
4501;DHT22;2263;54.654;9.410;2022-08-25T18:06:19;25.70;69.80
4501;DHT22;2263;54.654;9.410;2022-08-25T18:08:48;25.70;69.70
4501;DHT22;2263;54.654;9.410;2022-08-25T18:11:19;25.70;69.60
4501;DHT22;2263;54.654;9.410;2022-08-25T18:13:46;25.70;69.80
4501;DHT22;2263;54.654;9.410;2022-08-25T18:16:16;25.70;69.80
4501;DHT22;2263;54.654;9.410;2022-08-25T18:18:44;25.70;69.60
4501;DHT22;2263;54.654;9.410;2022-08-25T18:21:14;25.70;69.70
4501;DHT22;2263;54.654;9.410;2022-08-25T18:23:42;25.70;69.70
4501;DHT22;2263;54.654;9.410;2022-08-25T18:26:11;25.70;69.80
4501;DHT22;2263;54.654;9.410;2022-08-25T18:28:39;25.70;69.70
4501;DHT22;2263;54.654;9.410;2022-08-25T18:31:10;25.70;69.70
4501;DHT22;2263;54.654;9.410;2022-08-25T18:33:40;25.70;69.70
4501;DHT22;2263;54.654;9.410;2022-08-25T18:36:11;25.70;69.60
4501;DHT22;2263;54.654;9.410;2022-08-25T18:38:41;25.70;69.60
4501;DHT22;2263;54.654;9.410;2022-08-25T18:41:33;25.70;69.70
4501;DHT22;2263;54.654;9.410;2022-08-25T18:44:01;25.70;69.70
4501;DHT22;2263;54.654;9.410;2022-08-25T18:46:28;25.70;69.60
4501;DHT22;2263;54.654;9.410;2022-08-25T18:48:55;25.70;69.60